createdAt,value
2023-05-14T00:02:15.909Z,98816.52
2023-05-14T00:06:45.799Z,98822.11
2023-05-14T00:11:23.040Z,98827.73
2023-05-14T00:15:52.599Z,98830.80
2023-05-14T00:25:32.151Z,98804.94
2023-05-14T00:30:07.912Z,98802.09
2023-05-14T00:34:50.928Z,98802.04
2023-05-14T00:40:08.932Z,98798.03
2023-05-14T00:45:24.275Z,98794.39
2023-05-14T00:50:00.477Z,98793.09
2023-05-14T00:59:28.922Z,98792.08
2023-05-14T01:03:55.268Z,98793.45
2023-05-14T01:08:26.860Z,98792.30
2023-05-14T01:13:07.141Z,98787.16
2023-05-14T01:17:38.128Z,98790.05
2023-05-14T01:22:55.878Z,98805.11
2023-05-14T01:27:40.752Z,98803.10
2023-05-14T01:31:59.756Z,98800.50
2023-05-14T01:36:23.539Z,98798.92
2023-05-14T01:40:54.587Z,98796.46
2023-05-14T01:45:23.968Z,98790.84
2023-05-14T01:54:48.413Z,98772.50
2023-05-14T02:00:13.010Z,98773.52
2023-05-14T02:05:19.672Z,98764.31
2023-05-14T02:10:26.461Z,98754.18
2023-05-14T02:15:39.288Z,98748.95
2023-05-14T02:20:56.108Z,98748.84
2023-05-14T02:26:10.518Z,98735.72
2023-05-14T02:31:32.822Z,98726.36
2023-05-14T02:36:49.620Z,98721.33
2023-05-14T02:42:01.999Z,98716.84
2023-05-14T02:47:27.470Z,98712.77
2023-05-14T02:52:31.293Z,98708.79
2023-05-14T02:58:01.707Z,98710.83
2023-05-14T03:03:09.942Z,98706.73
2023-05-14T03:08:06.262Z,98709.24
2023-05-14T03:13:16.885Z,98697.05
2023-05-14T03:18:15.936Z,98694.82
2023-05-14T03:23:33.573Z,98688.59
2023-05-14T03:28:39.312Z,98693.83
2023-05-14T03:33:50.484Z,98696.16
2023-05-14T03:38:49.319Z,98696.94
2023-05-14T03:43:32.274Z,98700.05
2023-05-14T03:48:42.056Z,98711.96
2023-05-14T03:53:46.884Z,98709.96
2023-05-14T03:58:57.020Z,98712.85
2023-05-14T04:04:12.134Z,98718.61
2023-05-14T04:09:26.243Z,98722.46
2023-05-14T04:14:30.113Z,98726.20
2023-05-14T04:19:50.490Z,98732.48
2023-05-14T04:24:58.355Z,98727.67
2023-05-14T04:30:07.387Z,98729.13
2023-05-14T04:35:24.960Z,98717.26
2023-05-14T04:40:39.120Z,98718.21
2023-05-14T04:45:35.250Z,98713.48
2023-05-14T04:50:38.851Z,98704.45
2023-05-14T04:55:46.168Z,98700.72
2023-05-14T05:00:55.765Z,98700.95
2023-05-14T05:06:07.254Z,98697.16
2023-05-14T05:10:51.510Z,98695.48
2023-05-14T05:15:59.555Z,98688.13
2023-05-14T05:21:11.601Z,98679.52
2023-05-14T05:26:24.560Z,98670.50
2023-05-14T05:31:31.486Z,98659.39
2023-05-14T05:36:36.479Z,98661.09
2023-05-14T05:41:42.321Z,98661.71
2023-05-14T05:46:52.561Z,98656.56
2023-05-14T05:51:56.422Z,98664.96
2023-05-14T05:57:01.581Z,98659.64
2023-05-14T06:01:55.155Z,98654.35
2023-05-14T06:07:00.131Z,98638.70
2023-05-14T06:12:04.009Z,98641.62
2023-05-14T06:17:08.027Z,98644.16
2023-05-14T06:22:15.208Z,98640.05
2023-05-14T06:32:37.196Z,98633.36
2023-05-14T06:37:56.419Z,98637.71
2023-05-14T06:43:00.272Z,98628.54
2023-05-14T06:48:10.056Z,98626.02
2023-05-14T06:53:20.149Z,98617.54
2023-05-14T06:58:12.124Z,98617.92
2023-05-14T07:03:15.893Z,98614.24
2023-05-14T07:08:25.977Z,98609.60
2023-05-14T07:13:29.764Z,98611.19
2023-05-14T07:18:43.730Z,98609.67
2023-05-14T07:23:55.057Z,98604.95
2023-05-14T07:29:06.237Z,98599.67
2023-05-14T07:34:18.922Z,98594.52
2023-05-14T07:39:29.558Z,98595.69
2023-05-14T07:44:55.670Z,98594.79
2023-05-14T07:50:04.569Z,98589.04
2023-05-14T07:55:14.154Z,98592.73
2023-05-14T08:00:32.060Z,98582.02
2023-05-14T08:05:41.882Z,98573.88
2023-05-14T08:10:53.900Z,98573.34
2023-05-14T08:16:08.453Z,98562.60
2023-05-14T08:21:22.721Z,98558.30
2023-05-14T08:26:31.235Z,98549.45
2023-05-14T08:31:44.728Z,98543.88
2023-05-14T08:36:51.995Z,98538.05
2023-05-14T08:42:06.707Z,98524.61
2023-05-14T08:47:16.207Z,98519.50
2023-05-14T08:52:20.954Z,98504.46
2023-05-14T08:57:27.280Z,98497.70
2023-05-14T09:02:31.210Z,98491.11
2023-05-14T09:07:25.079Z,98485.08
2023-05-14T09:12:40.794Z,98480.71
2023-05-14T09:17:37.567Z,98479.42
2023-05-14T09:22:22.074Z,98466.54
2023-05-14T09:27:16.641Z,98460.02
2023-05-14T09:32:24.721Z,98450.39
2023-05-14T09:37:29.733Z,98441.73
2023-05-14T09:42:24.736Z,98437.44
2023-05-14T09:47:32.251Z,98436.14
2023-05-14T09:52:23.448Z,98423.81
2023-05-14T09:57:31.774Z,98416.52
2023-05-14T10:02:43.758Z,98406.73
2023-05-14T10:07:48.565Z,98423.15
2023-05-14T10:12:59.109Z,98417.41
2023-05-14T10:18:12.750Z,98410.22
2023-05-14T10:23:28.108Z,98389.70
2023-05-14T10:28:35.360Z,98391.23
2023-05-14T10:33:41.473Z,98382.19
2023-05-14T10:38:51.210Z,98376.50
2023-05-14T10:43:44.305Z,98373.02
2023-05-14T10:49:03.559Z,98367.95
2023-05-14T10:54:33.151Z,98355.21
2023-05-14T10:59:37.825Z,98343.26
2023-05-14T11:04:24.488Z,98331.67
2023-05-14T11:09:42.310Z,98325.86
2023-05-14T11:14:56.071Z,98309.89
2023-05-14T11:20:05.256Z,98306.02
2023-05-14T11:25:13.951Z,98291.08
2023-05-14T11:30:24.078Z,98298.26
2023-05-14T11:35:27.794Z,98305.67
2023-05-14T11:40:38.704Z,98296.29
2023-05-14T11:45:49.741Z,98302.83
2023-05-14T11:50:57.991Z,98296.88
2023-05-14T11:56:13.067Z,98298.23
2023-05-14T12:00:58.474Z,98306.67
2023-05-14T12:06:15.959Z,98303.41
2023-05-14T12:11:33.265Z,98301.79
2023-05-14T12:16:43.440Z,98292.77
2023-05-14T12:21:29.178Z,98300.85
2023-05-14T12:26:59.263Z,98299.75
2023-05-14T12:32:11.348Z,98291.00
2023-05-14T12:36:41.265Z,98282.13
2023-05-14T12:41:08.281Z,98277.33
2023-05-14T12:45:26.109Z,98276.23
2023-05-14T12:49:50.238Z,98277.09
2023-05-14T12:54:59.044Z,98277.77
2023-05-14T13:00:14.304Z,98272.39
2023-05-14T13:05:23.753Z,98273.81
2023-05-14T13:10:33.603Z,98260.38
2023-05-14T13:15:45.361Z,98251.77
2023-05-14T13:26:13.555Z,98237.33
2023-05-14T13:31:32.741Z,98233.97
2023-05-14T13:36:39.703Z,98238.87
2023-05-14T13:42:07.332Z,98235.48
2023-05-14T13:47:25.392Z,98237.25
2023-05-14T13:52:41.759Z,98228.42
2023-05-14T13:57:57.012Z,98217.29
2023-05-14T14:03:21.378Z,98213.48
2023-05-14T14:08:22.730Z,98204.02
2023-05-14T14:13:07.301Z,98198.30
2023-05-14T14:17:52.865Z,98203.55
2023-05-14T14:22:38.303Z,98203.35
2023-05-14T14:27:25.763Z,98193.24
2023-05-14T14:32:22.735Z,98184.77
2023-05-14T14:37:09.719Z,98179.61
2023-05-14T14:41:55.302Z,98174.77
2023-05-14T14:46:39.689Z,98163.61
2023-05-14T14:51:29.704Z,98168.15
2023-05-14T14:56:16.538Z,98162.33
2023-05-14T15:01:03.895Z,98165.39
2023-05-14T15:05:47.788Z,98168.36
2023-05-14T15:10:39.714Z,98165.67
2023-05-14T15:15:27.397Z,98151.37
2023-05-14T15:20:11.962Z,98153.36
2023-05-14T15:24:55.440Z,98152.17
2023-05-14T15:29:38.890Z,98138.42
2023-05-14T15:34:23.350Z,98132.44
2023-05-14T15:39:13.587Z,98131.63
2023-05-14T15:43:58.752Z,98129.08
2023-05-14T15:48:46.803Z,98132.70
2023-05-14T15:53:22.197Z,98132.11
2023-05-14T15:57:32.436Z,98127.02
2023-05-14T16:01:42.970Z,98126.23
2023-05-14T16:05:45.631Z,98118.66
2023-05-14T16:09:49.700Z,98106.91
2023-05-14T16:13:54.373Z,98101.08
2023-05-14T16:18:01.355Z,98099.78
2023-05-14T16:22:05.430Z,98093.45
2023-05-14T16:26:08.965Z,98085.02
2023-05-14T16:30:12.609Z,98079.46
2023-05-14T16:34:16.114Z,98076.24
2023-05-14T16:38:20.685Z,98070.34
2023-05-14T16:42:28.802Z,98072.47
2023-05-14T16:47:01.836Z,98067.23
2023-05-14T16:51:05.414Z,98063.79
2023-05-14T16:55:29.963Z,98063.41
2023-05-14T16:59:34.997Z,98062.67
2023-05-14T17:03:39.562Z,98066.86
2023-05-14T17:12:24.723Z,98062.70
2023-05-14T17:16:26.034Z,98058.81
2023-05-14T17:20:41.653Z,98053.64
2023-05-14T17:24:48.924Z,98050.14
2023-05-14T17:28:54.600Z,98055.48
2023-05-14T17:33:09.081Z,98052.33
2023-05-14T17:37:47.623Z,98058.19
2023-05-14T17:41:53.196Z,98052.04
2023-05-14T17:46:01.566Z,98053.84
2023-05-14T17:49:58.352Z,98056.20
2023-05-14T17:54:02.188Z,98053.73
2023-05-14T17:58:08.972Z,98049.33
2023-05-14T18:02:13.458Z,98041.29
2023-05-14T18:06:18.540Z,98029.10
2023-05-14T18:10:50.517Z,98030.13
2023-05-14T18:14:56.012Z,98029.89
2023-05-14T18:19:00.666Z,98025.00
2023-05-14T18:23:08.569Z,98019.10
2023-05-14T18:27:12.315Z,98021.17
2023-05-14T18:31:47.020Z,98017.23
2023-05-14T18:35:54.988Z,98013.80
2023-05-14T18:39:58.575Z,98010.79
2023-05-14T18:44:04.156Z,98011.34
2023-05-14T18:48:07.734Z,98009.41
2023-05-14T18:52:13.494Z,98001.25
2023-05-14T18:56:24.108Z,97998.51
2023-05-14T19:00:38.808Z,97998.58
2023-05-14T19:04:53.333Z,98004.75
2023-05-14T19:08:56.980Z,98007.15
2023-05-14T19:13:00.466Z,98005.94
2023-05-14T19:17:04.004Z,98001.91
2023-05-14T19:21:44.008Z,98001.06
2023-05-14T19:25:48.791Z,97993.20
2023-05-14T19:30:03.715Z,97994.16
2023-05-14T19:34:14.770Z,97983.94
2023-05-14T19:38:18.220Z,97976.61
2023-05-14T19:42:33.282Z,97971.11
2023-05-14T19:46:36.831Z,97975.05
2023-05-14T19:51:08.155Z,97963.61
2023-05-14T19:55:19.458Z,97959.74
2023-05-14T19:59:26.707Z,97950.20
2023-05-14T20:03:34.759Z,97953.08
2023-05-14T20:07:40.549Z,97952.58
2023-05-14T20:11:46.387Z,97945.38
2023-05-14T20:15:52.007Z,97932.38
2023-05-14T20:19:58.986Z,97919.05
2023-05-14T20:24:35.391Z,97911.02
2023-05-14T20:28:42.021Z,97911.82
2023-05-14T20:32:51.218Z,97907.22
2023-05-14T20:37:02.183Z,97903.76
2023-05-14T20:41:05.672Z,97896.92
2023-05-14T20:45:12.424Z,97891.86
2023-05-14T20:49:16.067Z,97898.26
2023-05-14T20:53:25.807Z,97892.69
2023-05-14T20:57:39.147Z,97884.59
2023-05-14T21:01:46.212Z,97874.53
2023-05-14T21:05:53.782Z,97874.19
2023-05-14T21:09:57.332Z,97858.45
2023-05-14T21:14:24.029Z,97850.94
2023-05-14T21:18:29.641Z,97847.67
2023-05-14T21:22:37.109Z,97846.96
2023-05-14T21:26:42.577Z,97846.71
2023-05-14T21:30:47.391Z,97856.17
2023-05-14T21:34:45.503Z,97855.12
2023-05-14T21:38:49.329Z,97863.77
2023-05-14T21:42:56.184Z,97859.48
2023-05-14T21:47:08.194Z,97860.20
2023-05-14T21:51:18.145Z,97856.85
2023-05-14T21:55:21.699Z,97851.70
2023-05-14T21:59:29.214Z,97843.11
2023-05-14T22:03:34.823Z,97844.09
2023-05-14T22:07:54.750Z,97835.59
2023-05-14T22:12:00.343Z,97834.86
2023-05-14T22:20:19.277Z,97825.30
2023-05-14T22:24:22.936Z,97822.61
2023-05-14T22:28:32.228Z,97815.40
2023-05-14T22:32:36.757Z,97812.34
2023-05-14T22:36:41.363Z,97816.99
2023-05-14T22:40:59.799Z,97809.87
2023-05-14T22:45:04.409Z,97811.10
2023-05-14T22:49:19.580Z,97805.58
2023-05-14T22:53:32.964Z,97804.39
2023-05-14T22:57:48.637Z,97802.98
2023-05-14T23:02:00.336Z,97797.56
2023-05-14T23:06:05.170Z,97788.73
2023-05-14T23:10:20.666Z,97779.35
2023-05-14T23:14:24.146Z,97771.36
2023-05-14T23:19:07.374Z,97760.83
2023-05-14T23:23:18.282Z,97757.66
2023-05-14T23:27:30.246Z,97742.92
2023-05-14T23:31:33.818Z,97737.48
2023-05-14T23:35:37.430Z,97725.29
2023-05-14T23:39:44.845Z,97724.41
2023-05-14T23:43:40.375Z,97719.02
2023-05-14T23:47:52.324Z,97718.98
2023-05-14T23:52:06.374Z,97721.21
2023-05-14T23:56:13.315Z,97718.79
